Time;durP1;ratioP1;P1;durP2;ratioP2;P2;SDS_P1;SDS_P2;PMS_P1;PMS_P2;Temp;Humidity;BMP_temperature;BMP_pressure;BME280_temperature;BME280_humidity;BME280_pressure;Samples;Min_cycle;Max_cycle;Signal;HPM_P1;HPM_P2
2022/03/01 00:01:33;;;;;;;20.08;11.85;;;;;;;;;;5029826;28;89571;-59
2022/03/01 00:03:59;;;;;;;17.77;11.23;;;;;;;;;;5017920;27;90207;-59
2022/03/01 00:06:26;;;;;;;21.33;11.85;;;;;;;;;;5014081;28;89903;-59
2022/03/01 00:08:54;;;;;;;19.80;11.57;;;;;;;;;;5017563;28;90200;-59
2022/03/01 00:11:21;;;;;;;19.42;12.20;;;;;;;;;;5029239;28;90733;-58
2022/03/01 00:13:47;;;;;;;20.85;11.38;;;;;;;;;;5017426;28;89333;-59
2022/03/01 00:16:13;;;;;;;26.55;12.63;;;;;;;;;;5027614;28;91345;-59
2022/03/01 00:18:40;;;;;;;21.38;12.75;;;;;;;;;;5022620;27;89562;-59
2022/03/01 00:21:06;;;;;;;23.25;12.07;;;;;;;;;;5017227;28;88963;-59
2022/03/01 00:23:32;;;;;;;20.70;12.48;;;;;;;;;;5032301;28;89877;-60
2022/03/01 00:25:59;;;;;;;24.08;13.15;;;;;;;;;;5016381;27;89183;-59
2022/03/01 00:28:25;;;;;;;28.15;12.93;;;;;;;;;;5019815;28;89857;-59
2022/03/01 00:30:51;;;;;;;24.33;13.48;;;;;;;;;;5016703;28;90936;-59
2022/03/01 00:33:17;;;;;;;24.23;12.05;;;;;;;;;;5017120;28;89558;-59
2022/03/01 00:35:44;;;;;;;22.70;13.43;;;;;;;;;;5015597;28;89997;-59
2022/03/01 00:38:10;;;;;;;21.75;12.23;;;;;;;;;;5032412;28;89366;-59
2022/03/01 00:40:37;;;;;;;22.23;13.18;;;;;;;;;;5020319;28;93800;-59
2022/03/01 00:43:04;;;;;;;20.48;12.35;;;;;;;;;;5014776;28;91636;-59
2022/03/01 00:45:30;;;;;;;23.08;12.68;;;;;;;;;;5014085;28;92570;-60
2022/03/01 00:47:56;;;;;;;23.75;12.85;;;;;;;;;;5017227;28;93390;-59
2022/03/01 00:50:23;;;;;;;26.95;12.63;;;;;;;;;;5011788;28;94797;-59
2022/03/01 00:52:49;;;;;;;20.30;13.02;;;;;;;;;;5013403;28;95780;-59
2022/03/01 00:55:15;;;;;;;19.60;12.57;;;;;;;;;;5017373;28;92512;-59
2022/03/01 00:57:41;;;;;;;21.48;11.98;;;;;;;;;;5027537;28;93279;-59
2022/03/01 01:00:09;;;;;;;22.33;12.90;;;;;;;;;;5014428;28;93119;-58
2022/03/01 01:02:35;;;;;;;24.60;12.38;;;;;;;;;;5020186;28;92486;-59
2022/03/01 01:05:02;;;;;;;17.77;12.23;;;;;;;;;;5014450;28;94368;-59
2022/03/01 01:07:28;;;;;;;23.83;12.82;;;;;;;;;;5013270;28;93737;-59
2022/03/01 01:09:54;;;;;;;22.15;13.25;;;;;;;;;;5012443;28;92535;-58
2022/03/01 01:12:20;;;;;;;23.95;12.32;;;;;;;;;;5013621;28;92879;-59
2022/03/01 01:14:47;;;;;;;20.30;11.57;;;;;;;;;;5018376;28;95676;-59
2022/03/01 01:17:13;;;;;;;24.50;12.73;;;;;;;;;;5023817;27;92654;-59
2022/03/01 01:19:40;;;;;;;20.58;12.88;;;;;;;;;;5024607;27;93388;-59
2022/03/01 01:24:55;;;;;;;28.75;13.05;;;;;;;;;;5013994;28;94192;-59
2022/03/01 01:27:21;;;;;;;20.70;11.52;;;;;;;;;;5016571;28;94425;-60
2022/03/01 01:29:47;;;;;;;22.20;12.77;;;;;;;;;;5019127;28;92646;-59
2022/03/01 01:32:14;;;;;;;19.77;13.40;;;;;;;;;;5013275;28;92976;-60
2022/03/01 01:34:40;;;;;;;21.20;12.60;;;;;;;;;;5016122;28;94241;-62
2022/03/01 01:37:06;;;;;;;19.55;12.48;;;;;;;;;;5013401;27;92542;-60
2022/03/01 01:39:32;;;;;;;23.00;12.18;;;;;;;;;;5014506;28;94876;-60
2022/03/01 01:41:59;;;;;;;24.83;13.70;;;;;;;;;;5023100;28;92423;-60
2022/03/01 01:44:25;;;;;;;22.00;12.30;;;;;;;;;;5015875;28;94311;-60
2022/03/01 01:46:51;;;;;;;22.75;13.02;;;;;;;;;;5019498;28;94382;-60
2022/03/01 01:49:18;;;;;;;22.15;12.73;;;;;;;;;;5021363;27;92825;-60
2022/03/01 01:51:44;;;;;;;20.83;12.55;;;;;;;;;;5012849;28;94202;-59
2022/03/01 01:54:11;;;;;;;22.00;13.15;;;;;;;;;;5013353;28;93450;-62
2022/03/01 01:56:38;;;;;;;26.90;12.77;;;;;;;;;;5014126;28;91769;-60
2022/03/01 01:59:04;;;;;;;23.30;12.80;;;;;;;;;;5014842;28;93046;-59
2022/03/01 02:01:30;;;;;;;19.98;12.45;;;;;;;;;;5020949;28;92822;-61
2022/03/01 02:03:58;;;;;;;21.65;12.05;;;;;;;;;;5030633;28;94872;-60
2022/03/01 02:06:25;;;;;;;20.10;12.23;;;;;;;;;;5016652;27;92450;-61
2022/03/01 02:08:51;;;;;;;22.15;11.77;;;;;;;;;;5017996;28;92429;-60
2022/03/01 02:11:18;;;;;;;24.77;13.32;;;;;;;;;;5029813;28;92996;-60
2022/03/01 02:13:44;;;;;;;20.70;13.15;;;;;;;;;;5014223;28;94768;-60
2022/03/01 02:16:10;;;;;;;19.25;13.10;;;;;;;;;;5011404;28;92479;-60
2022/03/01 02:18:37;;;;;;;23.80;13.45;;;;;;;;;;5029118;28;94233;-62
2022/03/01 02:21:03;;;;;;;22.02;13.20;;;;;;;;;;5032521;27;92188;-60
2022/03/01 02:23:29;;;;;;;21.50;12.68;;;;;;;;;;5031259;27;93191;-60
2022/03/01 02:25:56;;;;;;;24.50;13.57;;;;;;;;;;5019869;27;93447;-60
2022/03/01 02:28:22;;;;;;;24.27;13.52;;;;;;;;;;5018360;28;94887;-63
2022/03/01 02:30:48;;;;;;;21.38;12.35;;;;;;;;;;5016497;28;96662;-60
2022/03/01 02:33:14;;;;;;;19.20;12.70;;;;;;;;;;5017281;28;94408;-60
2022/03/01 02:35:41;;;;;;;20.10;12.93;;;;;;;;;;5006031;27;92506;-60
2022/03/01 02:38:07;;;;;;;26.58;14.07;;;;;;;;;;5012397;28;93148;-60
2022/03/01 02:40:34;;;;;;;20.98;12.93;;;;;;;;;;5011608;28;93261;-61
2022/03/01 02:43:00;;;;;;;20.35;12.75;;;;;;;;;;5020017;28;93454;-60
2022/03/01 02:45:26;;;;;;;21.83;13.38;;;;;;;;;;5017100;28;93346;-60
2022/03/01 02:47:52;;;;;;;21.73;13.52;;;;;;;;;;5016556;28;92864;-58
2022/03/01 02:50:19;;;;;;;21.48;13.50;;;;;;;;;;5017398;28;94222;-58
2022/03/01 02:52:45;;;;;;;20.15;12.55;;;;;;;;;;5028344;27;95175;-58
2022/03/01 02:55:12;;;;;;;21.30;12.88;;;;;;;;;;5012795;28;92518;-58
2022/03/01 02:57:38;;;;;;;21.00;12.27;;;;;;;;;;5011403;28;93464;-61
2022/03/01 03:00:06;;;;;;;23.58;13.82;;;;;;;;;;5010892;28;93558;-58
2022/03/01 03:02:33;;;;;;;20.95;13.40;;;;;;;;;;5011373;28;93143;-60
2022/03/01 03:04:59;;;;;;;20.98;12.75;;;;;;;;;;5016190;28;93751;-58
2022/03/01 03:07:26;;;;;;;23.20;12.82;;;;;;;;;;5018598;27;92435;-58
2022/03/01 03:09:52;;;;;;;24.00;13.73;;;;;;;;;;5030563;27;94404;-59
2022/03/01 03:12:18;;;;;;;19.75;12.65;;;;;;;;;;5016557;28;94447;-59
2022/03/01 03:14:45;;;;;;;24.27;13.38;;;;;;;;;;5019671;27;93026;-59
2022/03/01 03:17:11;;;;;;;26.45;12.90;;;;;;;;;;5011591;27;96490;-58
2022/03/01 03:19:37;;;;;;;23.48;13.18;;;;;;;;;;5011313;28;94480;-59
2022/03/01 03:22:05;;;;;;;23.98;13.18;;;;;;;;;;5014339;28;92450;-60
2022/03/01 03:24:31;;;;;;;20.00;13.50;;;;;;;;;;5012373;28;94036;-59
2022/03/01 03:26:58;;;;;;;26.50;13.45;;;;;;;;;;5022181;27;93491;-60
2022/03/01 03:29:24;;;;;;;21.85;12.98;;;;;;;;;;5014301;28;94320;-59
2022/03/01 03:31:54;;;;;;;24.95;13.38;;;;;;;;;;5015789;28;94341;-59
2022/03/01 03:34:20;;;;;;;23.42;13.73;;;;;;;;;;5023054;28;91734;-59
2022/03/01 03:36:48;;;;;;;27.92;12.35;;;;;;;;;;5016570;28;92577;-59
2022/03/01 03:39:14;;;;;;;21.33;13.52;;;;;;;;;;5011179;28;93669;-60
2022/03/01 03:41:41;;;;;;;29.45;13.13;;;;;;;;;;5011899;28;95182;-60
2022/03/01 03:44:07;;;;;;;21.90;13.15;;;;;;;;;;5015869;27;95872;-59
2022/03/01 03:46:34;;;;;;;23.17;13.23;;;;;;;;;;5011747;28;93557;-59
2022/03/01 03:49:00;;;;;;;26.27;13.15;;;;;;;;;;5014203;28;92356;-60
2022/03/01 03:51:26;;;;;;;22.17;12.88;;;;;;;;;;5007471;28;94195;-59
2022/03/01 03:53:54;;;;;;;26.92;13.52;;;;;;;;;;5011349;28;92485;-59
2022/03/01 03:56:20;;;;;;;22.02;13.10;;;;;;;;;;5011440;28;93221;-59
2022/03/01 03:58:46;;;;;;;28.27;14.13;;;;;;;;;;5011305;28;92855;-59
2022/03/01 04:01:12;;;;;;;24.98;13.68;;;;;;;;;;5014083;28;92422;-59
2022/03/01 04:03:39;;;;;;;24.83;13.60;;;;;;;;;;5011052;28;93620;-60
2022/03/01 04:06:06;;;;;;;26.02;13.18;;;;;;;;;;5008719;28;95622;-59
2022/03/01 04:08:33;;;;;;;22.70;12.80;;;;;;;;;;5014512;28;92974;-60
2022/03/01 04:11:00;;;;;;;26.98;13.55;;;;;;;;;;5013069;28;93299;-59
2022/03/01 04:13:26;;;;;;;23.40;13.27;;;;;;;;;;5010588;28;92987;-59
2022/03/01 04:15:53;;;;;;;21.17;13.10;;;;;;;;;;5012279;28;92508;-59
2022/03/01 04:18:19;;;;;;;18.98;12.70;;;;;;;;;;5008545;28;93400;-60
2022/03/01 04:20:45;;;;;;;25.08;13.52;;;;;;;;;;5012830;28;92479;-60
2022/03/01 04:23:13;;;;;;;21.40;12.15;;;;;;;;;;5011626;28;93895;-60
2022/03/01 04:25:39;;;;;;;21.33;13.70;;;;;;;;;;5010773;28;94492;-60
2022/03/01 04:28:06;;;;;;;22.95;12.90;;;;;;;;;;5010630;28;92661;-59
2022/03/01 04:30:32;;;;;;;19.73;13.13;;;;;;;;;;5012047;28;94794;-59
2022/03/01 04:32:59;;;;;;;19.58;12.40;;;;;;;;;;5009159;28;93873;-60
2022/03/01 04:35:25;;;;;;;23.45;12.70;;;;;;;;;;5007907;28;93690;-60
2022/03/01 04:37:51;;;;;;;25.02;13.07;;;;;;;;;;4998964;28;93454;-59
2022/03/01 04:40:18;;;;;;;26.05;12.52;;;;;;;;;;5006379;28;93013;-59
2022/03/01 04:42:44;;;;;;;22.48;13.73;;;;;;;;;;5010484;28;93298;-60
2022/03/01 04:45:11;;;;;;;24.30;13.40;;;;;;;;;;5022091;28;93831;-59
2022/03/01 04:47:38;;;;;;;26.75;13.98;;;;;;;;;;5010656;28;91674;-60
2022/03/01 04:50:05;;;;;;;24.08;13.32;;;;;;;;;;5010061;28;93628;-59
2022/03/01 04:52:31;;;;;;;23.05;13.45;;;;;;;;;;5013584;28;92926;-59
2022/03/01 04:54:58;;;;;;;22.23;12.68;;;;;;;;;;5012939;28;95352;-61
2022/03/01 04:57:24;;;;;;;23.85;13.10;;;;;;;;;;5015525;27;93604;-60
2022/03/01 04:59:50;;;;;;;21.85;12.77;;;;;;;;;;5016699;28;92470;-61
2022/03/01 05:02:16;;;;;;;27.83;13.75;;;;;;;;;;5020580;28;94253;-59
2022/03/01 05:04:43;;;;;;;19.30;12.00;;;;;;;;;;5014864;27;94177;-60
2022/03/01 05:07:09;;;;;;;25.63;13.32;;;;;;;;;;5010383;28;92771;-59
2022/03/01 05:09:36;;;;;;;25.00;14.25;;;;;;;;;;5013206;28;93195;-59
2022/03/01 05:12:02;;;;;;;21.15;12.90;;;;;;;;;;5017050;28;92463;-60
2022/03/01 05:14:28;;;;;;;23.55;13.13;;;;;;;;;;5019713;28;92584;-59
2022/03/01 05:16:55;;;;;;;24.17;13.20;;;;;;;;;;5016805;27;93088;-59
2022/03/01 05:19:21;;;;;;;22.65;13.05;;;;;;;;;;5012825;28;94861;-59
2022/03/01 05:21:47;;;;;;;20.88;12.52;;;;;;;;;;5014073;28;95680;-59
2022/03/01 05:24:14;;;;;;;24.33;12.98;;;;;;;;;;5014140;28;93201;-59
2022/03/01 05:26:41;;;;;;;20.17;12.75;;;;;;;;;;5021867;28;92449;-60
2022/03/01 05:29:07;;;;;;;22.17;12.93;;;;;;;;;;5016878;28;93141;-60
2022/03/01 05:31:34;;;;;;;21.90;12.40;;;;;;;;;;5025199;27;94188;-59
2022/03/01 05:34:00;;;;;;;26.08;13.38;;;;;;;;;;5013658;28;93011;-59
2022/03/01 05:36:26;;;;;;;21.77;12.95;;;;;;;;;;5027197;28;93206;-60
2022/03/01 05:38:53;;;;;;;20.63;12.65;;;;;;;;;;5013155;28;92787;-60
2022/03/01 05:41:20;;;;;;;24.45;12.57;;;;;;;;;;5013513;28;93229;-60
2022/03/01 05:43:46;;;;;;;25.65;12.93;;;;;;;;;;5011547;28;96847;-59
2022/03/01 05:46:12;;;;;;;26.23;14.00;;;;;;;;;;5014509;28;94219;-59
2022/03/01 05:48:41;;;;;;;23.10;13.02;;;;;;;;;;5023498;28;93025;-59
2022/03/01 05:51:08;;;;;;;26.98;12.68;;;;;;;;;;5020214;28;93395;-59
2022/03/01 05:53:34;;;;;;;21.42;12.00;;;;;;;;;;5013963;27;93091;-60
2022/03/01 05:56:00;;;;;;;23.10;13.57;;;;;;;;;;5019100;28;94430;-59
2022/03/01 05:58:27;;;;;;;21.15;12.10;;;;;;;;;;5012965;28;92457;-59
2022/03/01 06:00:53;;;;;;;26.20;13.55;;;;;;;;;;5023627;28;93132;-61
2022/03/01 06:03:19;;;;;;;26.40;13.50;;;;;;;;;;5012702;28;93503;-60
2022/03/01 06:05:46;;;;;;;26.58;13.25;;;;;;;;;;5013375;28;92575;-60
2022/03/01 06:08:12;;;;;;;22.13;13.38;;;;;;;;;;5010940;28;94776;-60
2022/03/01 06:10:38;;;;;;;21.02;12.90;;;;;;;;;;5013041;28;93459;-60
2022/03/01 06:13:04;;;;;;;20.50;12.70;;;;;;;;;;5012043;28;92690;-59
2022/03/01 06:15:31;;;;;;;27.25;13.48;;;;;;;;;;5021556;28;94261;-59
2022/03/01 06:17:57;;;;;;;21.92;12.45;;;;;;;;;;5015176;28;94459;-59
2022/03/01 06:20:23;;;;;;;20.40;12.50;;;;;;;;;;5013514;28;93530;-59
2022/03/01 06:22:50;;;;;;;19.42;12.23;;;;;;;;;;5012154;28;93752;-59
2022/03/01 06:25:20;;;;;;;18.27;12.23;;;;;;;;;;5025068;28;91637;-60
2022/03/01 06:27:46;;;;;;;21.98;12.73;;;;;;;;;;5025826;27;92367;-59
2022/03/01 06:30:15;;;;;;;19.08;11.82;;;;;;;;;;5015707;28;93547;-59
2022/03/01 06:32:41;;;;;;;22.63;12.70;;;;;;;;;;5010834;28;94927;-59
2022/03/01 06:35:09;;;;;;;20.98;12.25;;;;;;;;;;5012409;28;95519;-59
2022/03/01 06:37:42;;;;;;;24.73;12.70;;;;;;;;;;5013740;28;93943;-59
2022/03/01 06:40:08;;;;;;;21.77;12.40;;;;;;;;;;5010866;28;94248;-60
2022/03/01 06:42:35;;;;;;;20.80;12.65;;;;;;;;;;5012471;28;94509;-59
2022/03/01 06:45:02;;;;;;;21.88;12.40;;;;;;;;;;5016749;28;92856;-60
2022/03/01 06:47:28;;;;;;;24.30;12.05;;;;;;;;;;5017130;28;93207;-60
2022/03/01 06:49:54;;;;;;;23.60;13.35;;;;;;;;;;5025803;27;92756;-60
2022/03/01 06:52:20;;;;;;;27.02;14.25;;;;;;;;;;5017530;27;93923;-60
2022/03/01 06:54:47;;;;;;;23.27;15.05;;;;;;;;;;5011141;28;93859;-60
2022/03/01 06:57:15;;;;;;;25.13;14.68;;;;;;;;;;5009248;28;96842;-63
2022/03/01 06:59:41;;;;;;;24.83;13.23;;;;;;;;;;5012399;28;92679;-62
2022/03/01 07:02:07;;;;;;;20.17;13.30;;;;;;;;;;5015354;28;94213;-60
2022/03/01 07:04:34;;;;;;;24.00;13.15;;;;;;;;;;5012649;28;92693;-60
2022/03/01 07:07:00;;;;;;;25.13;13.32;;;;;;;;;;5028026;28;93323;-60
2022/03/01 07:09:26;;;;;;;21.27;13.52;;;;;;;;;;5032747;28;94452;-60
2022/03/01 07:11:52;;;;;;;24.75;14.18;;;;;;;;;;5032370;28;92360;-60
2022/03/01 07:14:20;;;;;;;20.38;12.40;;;;;;;;;;5026858;27;93025;-61
2022/03/01 07:16:46;;;;;;;28.80;14.05;;;;;;;;;;5020289;28;93424;-61
2022/03/01 07:19:12;;;;;;;21.80;13.60;;;;;;;;;;5021215;27;92646;-60
2022/03/01 07:21:39;;;;;;;23.55;13.43;;;;;;;;;;5010200;28;94776;-60
2022/03/01 07:24:05;;;;;;;24.10;13.57;;;;;;;;;;5015830;28;93594;-60
2022/03/01 07:26:31;;;;;;;28.23;14.30;;;;;;;;;;5012322;28;94411;-60
2022/03/01 07:28:58;;;;;;;24.50;13.65;;;;;;;;;;5011840;28;94410;-60
2022/03/01 07:31:26;;;;;;;24.73;13.43;;;;;;;;;;5012241;28;92812;-60
2022/03/01 07:33:52;;;;;;;21.42;12.75;;;;;;;;;;5010157;28;93317;-61
2022/03/01 07:36:18;;;;;;;24.48;13.77;;;;;;;;;;5011157;28;94454;-60
2022/03/01 07:38:46;;;;;;;24.33;13.35;;;;;;;;;;5013419;28;91728;-60
2022/03/01 07:41:12;;;;;;;21.88;13.32;;;;;;;;;;5011999;28;93528;-60
2022/03/01 07:43:39;;;;;;;29.35;14.85;;;;;;;;;;5011899;28;93495;-59
2022/03/01 07:46:10;;;;;;;26.83;14.50;;;;;;;;;;5014046;28;94809;-60
2022/03/01 07:48:40;;;;;;;23.45;13.10;;;;;;;;;;5011188;28;93254;-60
2022/03/01 07:51:07;;;;;;;27.07;13.27;;;;;;;;;;5011227;28;92583;-60
2022/03/01 07:53:33;;;;;;;24.40;14.05;;;;;;;;;;5011595;28;92358;-60
2022/03/01 07:56:00;;;;;;;24.95;13.90;;;;;;;;;;5010144;28;93469;-60
2022/03/01 07:58:26;;;;;;;23.50;13.57;;;;;;;;;;5032018;27;92526;-60
2022/03/01 08:00:53;;;;;;;21.65;13.10;;;;;;;;;;5022398;28;94453;-61
2022/03/01 08:03:19;;;;;;;22.73;13.10;;;;;;;;;;5011158;28;92555;-60
2022/03/01 08:05:46;;;;;;;25.23;13.98;;;;;;;;;;5015748;28;92513;-60
2022/03/01 08:08:13;;;;;;;23.55;13.57;;;;;;;;;;5020874;27;93217;-59
2022/03/01 08:10:40;;;;;;;24.17;14.15;;;;;;;;;;5006691;28;95153;-60
2022/03/01 08:13:27;;;;;;;28.00;14.75;;;;;;;;;;4994100;28;98604;-60
2022/03/01 08:15:53;;;;;;;27.58;14.55;;;;;;;;;;5010646;28;94397;-61
2022/03/01 08:18:19;;;;;;;47.15;13.77;;;;;;;;;;5010393;28;92417;-60
2022/03/01 08:20:45;;;;;;;32.40;15.63;;;;;;;;;;5004126;28;93163;-60
2022/03/01 08:23:12;;;;;;;22.27;13.88;;;;;;;;;;5011002;28;94480;-60
2022/03/01 08:25:38;;;;;;;26.90;15.77;;;;;;;;;;5001742;28;92949;-59
2022/03/01 08:28:05;;;;;;;28.70;17.30;;;;;;;;;;5000462;28;94255;-60
2022/03/01 08:30:31;;;;;;;25.42;14.27;;;;;;;;;;5029552;28;93369;-60
2022/03/01 08:32:57;;;;;;;33.40;14.05;;;;;;;;;;5013168;28;93441;-60
2022/03/01 08:35:24;;;;;;;24.30;14.43;;;;;;;;;;5013179;28;95910;-60
2022/03/01 08:37:52;;;;;;;26.90;15.40;;;;;;;;;;5014229;28;92543;-60
2022/03/01 08:40:19;;;;;;;28.60;14.20;;;;;;;;;;5013773;28;94046;-60
2022/03/01 08:42:45;;;;;;;23.55;14.20;;;;;;;;;;5014924;28;96236;-60
2022/03/01 08:45:12;;;;;;;23.73;14.10;;;;;;;;;;5013531;28;92386;-60
2022/03/01 08:47:39;;;;;;;23.38;14.52;;;;;;;;;;5014564;28;94319;-60
2022/03/01 08:50:06;;;;;;;23.98;13.85;;;;;;;;;;5017458;28;94103;-60
2022/03/01 08:52:52;;;;;;;25.98;13.75;;;;;;;;;;5014959;28;95506;-60
2022/03/01 08:55:18;;;;;;;29.20;14.27;;;;;;;;;;5014275;28;93809;-60
2022/03/01 08:57:44;;;;;;;21.73;14.02;;;;;;;;;;5014014;28;92521;-60
2022/03/01 09:00:12;;;;;;;24.98;14.75;;;;;;;;;;5012513;28;94928;-59
2022/03/01 09:02:39;;;;;;;24.27;14.35;;;;;;;;;;5013795;28;93525;-60
2022/03/01 09:05:05;;;;;;;20.63;14.35;;;;;;;;;;5020606;28;92916;-60
2022/03/01 09:07:32;;;;;;;25.13;13.63;;;;;;;;;;5033869;27;92860;-60
2022/03/01 09:09:58;;;;;;;22.98;13.82;;;;;;;;;;5033241;27;93527;-60
2022/03/01 09:12:25;;;;;;;24.83;14.90;;;;;;;;;;5037663;27;93040;-60
2022/03/01 09:14:51;;;;;;;25.75;15.25;;;;;;;;;;5030812;27;93431;-60
2022/03/01 09:17:18;;;;;;;24.27;14.88;;;;;;;;;;5023470;28;91670;-60
2022/03/01 09:19:44;;;;;;;28.13;15.07;;;;;;;;;;5034102;27;92602;-60
2022/03/01 09:22:10;;;;;;;23.55;13.93;;;;;;;;;;5033978;27;93149;-60
2022/03/01 09:24:37;;;;;;;27.45;14.55;;;;;;;;;;5031880;27;94846;-60
2022/03/01 09:27:03;;;;;;;25.55;14.52;;;;;;;;;;5022561;28;95631;-61
2022/03/01 09:29:30;;;;;;;21.52;14.13;;;;;;;;;;5033616;28;93243;-60
2022/03/01 09:31:57;;;;;;;27.73;15.40;;;;;;;;;;5022913;27;92749;-60
2022/03/01 09:34:23;;;;;;;23.27;14.25;;;;;;;;;;5017248;28;92442;-60
2022/03/01 09:36:49;;;;;;;22.88;14.55;;;;;;;;;;5013338;28;92475;-62
2022/03/01 09:39:17;;;;;;;24.00;15.27;;;;;;;;;;5012556;28;93375;-61
2022/03/01 09:41:43;;;;;;;27.20;14.48;;;;;;;;;;5008555;28;92345;-60
2022/03/01 09:44:10;;;;;;;24.10;14.23;;;;;;;;;;5006237;27;92885;-60
2022/03/01 09:46:38;;;;;;;24.92;14.30;;;;;;;;;;5007972;28;94369;-60
2022/03/01 09:49:06;;;;;;;24.55;14.32;;;;;;;;;;4994571;28;96224;-60
2022/03/01 09:51:36;;;;;;;26.60;13.50;;;;;;;;;;5018775;28;92483;-60
2022/03/01 09:54:02;;;;;;;23.55;14.02;;;;;;;;;;5013885;27;94254;-60
2022/03/01 09:56:29;;;;;;;27.42;15.13;;;;;;;;;;5016483;28;93045;-60
2022/03/01 09:58:57;;;;;;;33.50;14.82;;;;;;;;;;5015136;28;93590;-60
2022/03/01 10:01:24;;;;;;;27.98;15.00;;;;;;;;;;5012579;27;92529;-60
2022/03/01 10:03:52;;;;;;;26.65;14.50;;;;;;;;;;5012353;28;92515;-61
2022/03/01 10:06:21;;;;;;;19.58;13.52;;;;;;;;;;5013684;28;91884;-60
2022/03/01 10:08:54;;;;;;;24.35;14.95;;;;;;;;;;5018693;28;93278;-60
2022/03/01 10:11:21;;;;;;;26.17;14.48;;;;;;;;;;5013463;28;92794;-60
2022/03/01 10:13:47;;;;;;;25.80;14.27;;;;;;;;;;5011304;28;95026;-61
2022/03/01 10:16:15;;;;;;;23.67;14.70;;;;;;;;;;5011100;28;93369;-60
2022/03/01 10:18:43;;;;;;;29.13;14.85;;;;;;;;;;5026333;27;93751;-60
2022/03/01 10:21:10;;;;;;;30.33;15.13;;;;;;;;;;5011076;28;93936;-60
2022/03/01 10:23:38;;;;;;;24.63;14.90;;;;;;;;;;5013360;28;92537;-60
2022/03/01 10:26:11;;;;;;;21.75;14.55;;;;;;;;;;5012318;28;93510;-60
2022/03/01 10:28:41;;;;;;;29.80;15.60;;;;;;;;;;5012573;28;93450;-61
2022/03/01 10:31:13;;;;;;;24.05;15.70;;;;;;;;;;5032656;27;91769;-60
2022/03/01 10:33:58;;;;;;;26.10;14.48;;;;;;;;;;5029595;27;93506;-60
2022/03/01 10:36:26;;;;;;;21.42;14.23;;;;;;;;;;5032766;27;93223;-60
2022/03/01 10:38:56;;;;;;;29.25;15.25;;;;;;;;;;5022602;27;95249;-60
2022/03/01 10:41:24;;;;;;;26.52;15.85;;;;;;;;;;5013167;28;93193;-60
2022/03/01 10:43:52;;;;;;;25.00;14.80;;;;;;;;;;5023709;28;92788;-60
2022/03/01 10:46:19;;;;;;;28.77;14.48;;;;;;;;;;5012822;28;94468;-60
2022/03/01 10:48:46;;;;;;;27.92;14.80;;;;;;;;;;5012113;28;93216;-61
2022/03/01 10:51:13;;;;;;;22.65;14.43;;;;;;;;;;5011533;28;92392;-60
2022/03/01 10:53:42;;;;;;;26.75;14.32;;;;;;;;;;5030043;28;93238;-60
2022/03/01 10:56:10;;;;;;;26.70;14.70;;;;;;;;;;5033103;27;92783;-61
2022/03/01 10:58:37;;;;;;;24.00;14.63;;;;;;;;;;5028589;27;92505;-61
2022/03/01 11:01:04;;;;;;;30.73;15.43;;;;;;;;;;5019759;27;93093;-60
2022/03/01 11:03:30;;;;;;;24.40;14.68;;;;;;;;;;5024228;28;95556;-60
2022/03/01 11:05:58;;;;;;;26.25;15.60;;;;;;;;;;5012280;27;95563;-60
2022/03/01 11:08:34;;;;;;;27.73;16.27;;;;;;;;;;5012279;28;93887;-61
2022/03/01 11:11:01;;;;;;;22.08;14.85;;;;;;;;;;5012392;28;93704;-61
2022/03/01 11:13:27;;;;;;;37.60;19.23;;;;;;;;;;5020514;28;93017;-60
2022/03/01 11:16:07;;;;;;;29.98;16.38;;;;;;;;;;5023570;28;94786;-61
2022/03/01 11:18:39;;;;;;;32.30;15.25;;;;;;;;;;5011942;28;92646;-60
2022/03/01 11:21:07;;;;;;;23.77;15.35;;;;;;;;;;5008269;28;94377;-60
2022/03/01 11:23:34;;;;;;;28.13;16.10;;;;;;;;;;5014840;28;93479;-60
2022/03/01 11:26:07;;;;;;;28.63;15.48;;;;;;;;;;5016634;28;93319;-60
2022/03/01 11:28:40;;;;;;;27.48;15.43;;;;;;;;;;5015991;28;96290;-60
2022/03/01 11:31:19;;;;;;;32.65;14.88;;;;;;;;;;5019333;27;93026;-61
2022/03/01 11:33:53;;;;;;;29.00;15.93;;;;;;;;;;4991034;28;93230;-61
2022/03/01 11:36:21;;;;;;;31.17;16.88;;;;;;;;;;4998186;28;93376;-60
2022/03/01 11:38:47;;;;;;;28.85;15.65;;;;;;;;;;5019427;28;92434;-60
2022/03/01 11:41:19;;;;;;;24.77;15.00;;;;;;;;;;5031381;27;93262;-59
2022/03/01 11:43:53;;;;;;;26.05;16.42;;;;;;;;;;5026320;27;93418;-61
2022/03/01 11:46:27;;;;;;;26.25;15.18;;;;;;;;;;5015750;27;91674;-60
2022/03/01 11:48:57;;;;;;;27.30;15.88;;;;;;;;;;5010804;28;93430;-61
2022/03/01 11:51:33;;;;;;;38.80;16.37;;;;;;;;;;5012134;28;92992;-60
2022/03/01 11:54:01;;;;;;;29.65;17.45;;;;;;;;;;5008925;28;94984;-61
2022/03/01 11:56:28;;;;;;;48.90;27.63;;;;;;;;;;5019939;27;93213;-61
2022/03/01 11:58:54;;;;;;;50.90;23.75;;;;;;;;;;5023549;28;92687;-61
2022/03/01 12:01:22;;;;;;;46.03;24.25;;;;;;;;;;5030974;28;93162;-60
2022/03/01 12:03:49;;;;;;;42.20;22.60;;;;;;;;;;5034238;27;93364;-60
2022/03/01 12:06:19;;;;;;;37.20;20.63;;;;;;;;;;5018352;27;92426;-60
2022/03/01 12:08:48;;;;;;;33.95;19.02;;;;;;;;;;5024592;28;94220;-60
2022/03/01 12:11:14;;;;;;;28.50;17.92;;;;;;;;;;5023438;28;91730;-60
2022/03/01 12:13:42;;;;;;;28.88;17.42;;;;;;;;;;5014975;28;93529;-60
2022/03/01 12:16:10;;;;;;;26.88;16.65;;;;;;;;;;5020044;28;92685;-59
2022/03/01 12:18:38;;;;;;;26.70;16.73;;;;;;;;;;5013254;28;94903;-59
2022/03/01 12:21:08;;;;;;;32.13;15.27;;;;;;;;;;5014623;28;96675;-59
2022/03/01 12:23:37;;;;;;;30.52;16.48;;;;;;;;;;5014685;28;94642;-60
2022/03/01 12:26:05;;;;;;;31.60;16.25;;;;;;;;;;5014109;28;92484;-60
2022/03/01 12:28:37;;;;;;;29.50;16.83;;;;;;;;;;5016792;28;93162;-60
2022/03/01 12:31:23;;;;;;;30.33;17.45;;;;;;;;;;5019306;28;92506;-59
2022/03/01 12:33:51;;;;;;;24.65;17.35;;;;;;;;;;5008309;28;93184;-59
2022/03/01 12:36:25;;;;;;;29.15;17.20;;;;;;;;;;5000425;28;93420;-60
2022/03/01 12:38:52;;;;;;;25.05;15.93;;;;;;;;;;5004437;28;92680;-60
2022/03/01 12:41:21;;;;;;;33.13;16.92;;;;;;;;;;5010804;28;93542;-60
2022/03/01 12:43:51;;;;;;;28.48;18.70;;;;;;;;;;5009644;28;96787;-60
2022/03/01 12:46:17;;;;;;;29.40;16.33;;;;;;;;;;5018888;28;92596;-60
2022/03/01 12:48:44;;;;;;;30.63;18.63;;;;;;;;;;5013951;28;93163;-59
2022/03/01 12:51:11;;;;;;;30.02;18.30;;;;;;;;;;5017770;28;94659;-60
2022/03/01 12:53:48;;;;;;;26.25;16.40;;;;;;;;;;5017485;28;93248;-60
2022/03/01 12:56:19;;;;;;;36.67;19.50;;;;;;;;;;5006674;28;94179;-60
2022/03/01 12:58:45;;;;;;;21.67;15.48;;;;;;;;;;5031809;27;92922;-60
2022/03/01 13:01:12;;;;;;;25.08;16.42;;;;;;;;;;5032851;27;93311;-60
2022/03/01 13:03:38;;;;;;;26.35;15.95;;;;;;;;;;5018147;27;94688;-60
2022/03/01 13:06:08;;;;;;;26.30;15.57;;;;;;;;;;5015475;28;92442;-60
2022/03/01 13:08:35;;;;;;;29.42;15.75;;;;;;;;;;5012799;28;95167;-60
2022/03/01 13:11:02;;;;;;;34.80;17.58;;;;;;;;;;5014864;28;93316;-60
2022/03/01 13:13:28;;;;;;;30.30;16.20;;;;;;;;;;5016497;28;92745;-61
2022/03/01 13:16:01;;;;;;;27.77;17.27;;;;;;;;;;5013143;28;94285;-61
2022/03/01 13:18:27;;;;;;;27.92;15.73;;;;;;;;;;5014590;28;92410;-59
2022/03/01 13:20:53;;;;;;;27.77;16.33;;;;;;;;;;5013479;28;93200;-61
2022/03/01 13:23:26;;;;;;;29.02;18.23;;;;;;;;;;5014371;27;93251;-60
2022/03/01 13:25:53;;;;;;;34.35;17.63;;;;;;;;;;5016572;28;93485;-61
2022/03/01 13:28:29;;;;;;;31.25;16.48;;;;;;;;;;5029233;27;93303;-60
2022/03/01 13:30:55;;;;;;;24.90;15.95;;;;;;;;;;5013990;28;93426;-60
2022/03/01 13:33:25;;;;;;;27.63;17.23;;;;;;;;;;5011527;28;95165;-60
2022/03/01 13:35:51;;;;;;;24.40;16.52;;;;;;;;;;5017823;28;97162;-60
2022/03/01 13:38:19;;;;;;;23.63;15.90;;;;;;;;;;5013784;28;92412;-60
2022/03/01 13:40:45;;;;;;;28.63;16.25;;;;;;;;;;5016095;28;94307;-60
2022/03/01 13:43:16;;;;;;;26.58;16.25;;;;;;;;;;5022238;27;93592;-61
2022/03/01 13:45:43;;;;;;;27.85;16.42;;;;;;;;;;5013895;28;93738;-60
2022/03/01 13:48:10;;;;;;;26.67;16.95;;;;;;;;;;5013943;28;94117;-61
2022/03/01 13:50:37;;;;;;;33.47;17.55;;;;;;;;;;5012831;28;92736;-60
2022/03/01 13:53:10;;;;;;;29.05;17.83;;;;;;;;;;4998029;28;92505;-61
2022/03/01 13:55:37;;;;;;;24.60;16.65;;;;;;;;;;5010122;28;94293;-59
2022/03/01 13:58:03;;;;;;;30.55;16.70;;;;;;;;;;5023187;28;95712;-60
2022/03/01 14:00:37;;;;;;;29.75;16.50;;;;;;;;;;5000701;28;96631;-59
2022/03/01 14:03:08;;;;;;;30.35;17.40;;;;;;;;;;5005881;28;93356;-59
2022/03/01 14:05:35;;;;;;;;;;;;;;;;;;4998115;28;92489;-60
2022/03/01 14:08:05;;;;;;;28.67;17.35;;;;;;;;;;5013124;28;123649;-59
2022/03/01 14:10:33;;;;;;;32.33;18.63;;;;;;;;;;5032464;28;94823;-60
2022/03/01 14:13:07;;;;;;;24.58;17.35;;;;;;;;;;5030906;27;92441;-60
2022/03/01 14:15:35;;;;;;;27.20;17.05;;;;;;;;;;5026589;27;93127;-59
2022/03/01 14:18:02;;;;;;;33.63;18.02;;;;;;;;;;5001170;28;94400;-59
2022/03/01 14:20:29;;;;;;;30.88;17.38;;;;;;;;;;5012124;28;93239;-60